createdAt,value
2023-02-28T00:00:27.848Z,0.20
2023-02-28T00:02:54.399Z,0.30
2023-02-28T00:05:22.880Z,0.30
2023-02-28T00:07:50.101Z,0.30
2023-02-28T00:10:21.585Z,0.30
2023-02-28T00:12:49.358Z,0.30
2023-02-28T00:15:16.580Z,0.30
2023-02-28T00:17:43.771Z,0.20
2023-02-28T00:20:12.649Z,0.20
2023-02-28T00:22:41.569Z,0.20
2023-02-28T00:25:09.345Z,0.20
2023-02-28T00:27:37.407Z,0.20
2023-02-28T00:30:05.066Z,0.20
2023-02-28T00:32:31.659Z,0.30
2023-02-28T00:34:58.220Z,0.30
2023-02-28T00:37:25.171Z,0.30
2023-02-28T00:39:51.772Z,0.30
2023-02-28T00:42:18.298Z,0.30
2023-02-28T00:44:44.865Z,0.30
2023-02-28T00:47:11.449Z,0.30
2023-02-28T00:49:38.214Z,0.30
2023-02-28T00:52:04.959Z,0.30
2023-02-28T00:54:31.487Z,0.40
2023-02-28T00:56:58.067Z,0.40
2023-02-28T00:59:24.647Z,0.40
2023-02-28T01:01:51.271Z,0.40
2023-02-28T01:04:18.054Z,0.50
2023-02-28T01:06:44.830Z,0.50
2023-02-28T01:09:11.562Z,0.40
2023-02-28T01:11:38.535Z,0.40
2023-02-28T01:14:05.395Z,0.40
2023-02-28T01:16:32.103Z,0.40
2023-02-28T01:18:58.724Z,0.40
2023-02-28T01:21:25.547Z,0.40
2023-02-28T01:23:52.446Z,0.50
2023-02-28T01:26:23.360Z,0.40
2023-02-28T01:28:51.488Z,0.30
2023-02-28T01:31:19.144Z,0.30
2023-02-28T01:33:46.187Z,0.30
2023-02-28T01:36:15.491Z,0.40
2023-02-28T01:38:42.309Z,0.40
2023-02-28T01:41:13.700Z,0.40
2023-02-28T01:43:43.189Z,0.40
2023-02-28T01:46:10.787Z,0.30
2023-02-28T01:48:42.755Z,0.40
2023-02-28T01:51:19.374Z,0.40
2023-02-28T01:53:51.822Z,0.40
2023-02-28T01:56:24.212Z,0.40
2023-02-28T01:58:52.747Z,0.40
2023-02-28T02:01:23.499Z,0.30
2023-02-28T02:03:56.297Z,0.30
2023-02-28T02:06:39.032Z,0.30
2023-02-28T02:09:05.723Z,0.30
2023-02-28T02:11:32.448Z,0.30
2023-02-28T02:14:28.499Z,0.30
2023-02-28T02:17:27.342Z,0.40
2023-02-28T02:20:17.127Z,0.40
2023-02-28T02:22:49.439Z,0.40
2023-02-28T02:25:30.183Z,0.40
2023-02-28T02:28:23.834Z,0.40
2023-02-28T02:31:12.028Z,0.30
2023-02-28T02:34:03.242Z,0.30
2023-02-28T02:36:38.789Z,0.40
2023-02-28T02:39:30.650Z,0.40
2023-02-28T02:42:02.535Z,0.40
2023-02-28T02:44:35.340Z,0.30
2023-02-28T02:47:10.592Z,0.30
2023-02-28T02:49:39.326Z,0.30
2023-02-28T02:52:08.956Z,0.40
2023-02-28T02:54:40.309Z,0.40
2023-02-28T02:57:16.681Z,0.40
2023-02-28T02:59:44.893Z,0.40
2023-02-28T03:02:15.539Z,0.40
2023-02-28T03:04:49.393Z,0.50
2023-02-28T03:07:15.952Z,0.40
2023-02-28T03:09:58.456Z,0.50
2023-02-28T03:12:34.854Z,0.40
2023-02-28T03:15:18.614Z,0.40
2023-02-28T03:18:09.276Z,0.30
2023-02-28T03:20:38.658Z,0.20
2023-02-28T03:23:17.284Z,0.20
2023-02-28T03:26:04.817Z,0.30
2023-02-28T03:28:42.636Z,0.30
2023-02-28T03:31:18.152Z,0.30
2023-02-28T03:33:55.738Z,0.30
2023-02-28T03:36:31.824Z,0.30
2023-02-28T03:39:09.316Z,0.30
2023-02-28T03:41:53.732Z,0.40
2023-02-28T03:44:28.498Z,0.40
2023-02-28T03:47:03.681Z,0.30
2023-02-28T03:49:36.031Z,0.30
2023-02-28T03:52:07.014Z,0.30
2023-02-28T03:54:39.002Z,0.30
2023-02-28T03:57:23.970Z,0.30
2023-02-28T04:00:08.166Z,0.30
2023-02-28T04:02:35.009Z,0.40
2023-02-28T04:05:02.097Z,0.40
2023-02-28T04:07:32.091Z,0.30
2023-02-28T04:09:59.499Z,0.20
2023-02-28T04:12:26.371Z,0.30
2023-02-28T04:14:52.924Z,0.30
2023-02-28T04:17:19.900Z,0.30
2023-02-28T04:19:46.416Z,0.20
2023-02-28T04:22:13.005Z,0.20
2023-02-28T04:24:42.262Z,0.20
2023-02-28T04:27:10.231Z,0.30
2023-02-28T04:29:36.937Z,0.30
2023-02-28T04:32:04.047Z,0.30
2023-02-28T04:34:32.566Z,0.30
2023-02-28T04:37:12.261Z,0.20
2023-02-28T04:39:40.302Z,0.30
2023-02-28T04:42:07.124Z,0.30
2023-02-28T04:44:33.695Z,0.30
2023-02-28T04:47:00.288Z,0.30
2023-02-28T04:49:26.986Z,0.30
2023-02-28T04:51:53.977Z,0.30
2023-02-28T04:54:20.640Z,0.30
2023-02-28T04:56:49.335Z,0.20
2023-02-28T04:59:15.969Z,0.20
2023-02-28T05:01:47.686Z,0.20
2023-02-28T05:04:14.571Z,0.20
2023-02-28T05:06:41.110Z,0.20
2023-02-28T05:09:07.716Z,0.10
2023-02-28T05:11:36.308Z,0.10
2023-02-28T05:14:10.790Z,0.20
2023-02-28T05:16:37.391Z,0.20
2023-02-28T05:19:04.214Z,0.30
2023-02-28T05:21:35.395Z,0.20
2023-02-28T05:24:03.232Z,0.30
2023-02-28T05:26:30.962Z,0.30
2023-02-28T05:28:58.311Z,0.30
2023-02-28T05:31:25.021Z,0.30
2023-02-28T05:33:52.390Z,0.20
2023-02-28T05:36:19.509Z,0.20
2023-02-28T05:38:50.736Z,0.20
2023-02-28T05:41:20.172Z,0.20
2023-02-28T05:43:47.137Z,0.20
2023-02-28T05:46:14.186Z,0.30
2023-02-28T05:48:46.260Z,0.30
2023-02-28T05:51:12.882Z,0.30
2023-02-28T05:53:39.470Z,0.30
2023-02-28T05:56:06.694Z,0.20
2023-02-28T05:58:33.546Z,0.30
2023-02-28T06:01:01.180Z,0.30
2023-02-28T06:03:28.440Z,0.30
2023-02-28T06:05:55.096Z,0.30
2023-02-28T06:08:21.781Z,0.20
2023-02-28T06:10:48.470Z,0.20
2023-02-28T06:13:15.519Z,0.30
2023-02-28T06:15:42.370Z,0.30
2023-02-28T06:18:09.043Z,0.30
2023-02-28T06:20:37.042Z,0.30
2023-02-28T06:23:03.659Z,0.30
2023-02-28T06:25:30.223Z,0.30
2023-02-28T06:27:56.900Z,0.30
2023-02-28T06:30:27.643Z,0.30
2023-02-28T06:32:55.291Z,0.30
2023-02-28T06:35:22.298Z,0.30
2023-02-28T06:37:48.976Z,0.30
2023-02-28T06:40:16.091Z,0.30
2023-02-28T06:42:42.930Z,0.20
2023-02-28T06:45:11.015Z,0.20
2023-02-28T06:47:40.343Z,0.20
2023-02-28T06:50:10.182Z,0.20
2023-02-28T06:52:39.688Z,0.20
2023-02-28T06:55:07.995Z,0.20
2023-02-28T06:57:35.964Z,0.20
2023-02-28T07:00:07.016Z,0.20
2023-02-28T07:02:33.564Z,0.20
2023-02-28T07:05:00.054Z,0.20
2023-02-28T07:07:26.594Z,0.30
2023-02-28T07:09:53.127Z,0.30
2023-02-28T07:12:19.784Z,0.30
2023-02-28T07:14:46.335Z,0.30
2023-02-28T07:17:13.136Z,0.20
2023-02-28T07:19:40.422Z,0.20
2023-02-28T07:22:07.670Z,0.20
2023-02-28T07:24:34.318Z,0.20
2023-02-28T07:27:01.711Z,0.20
2023-02-28T07:29:28.367Z,0.10
2023-02-28T07:31:54.966Z,0.10
2023-02-28T07:34:21.925Z,0.20
2023-02-28T07:36:48.486Z,0.10
2023-02-28T07:39:15.041Z,0.10
2023-02-28T07:41:44.369Z,0.10
2023-02-28T07:44:12.040Z,0.20
2023-02-28T07:46:39.064Z,0.20
2023-02-28T07:49:06.408Z,0.20
2023-02-28T07:51:33.184Z,0.10
2023-02-28T07:53:59.858Z,0.20
2023-02-28T07:56:26.454Z,0.20
2023-02-28T07:58:53.108Z,0.20
2023-02-28T08:01:20.381Z,0.20
2023-02-28T08:03:47.038Z,0.20
2023-02-28T08:06:24.935Z,0.30
2023-02-28T08:08:51.983Z,0.40
2023-02-28T08:11:18.835Z,0.40
2023-02-28T08:13:46.104Z,0.40
2023-02-28T08:16:22.084Z,0.40
2023-02-28T08:18:53.011Z,0.40
2023-02-28T08:21:21.106Z,0.50
2023-02-28T08:23:49.759Z,0.50
2023-02-28T08:26:17.850Z,0.50
2023-02-28T08:28:45.290Z,0.50
2023-02-28T08:31:14.327Z,0.50
2023-02-28T08:33:41.437Z,0.60
2023-02-28T08:36:09.427Z,0.60
2023-02-28T08:38:37.164Z,0.50
2023-02-28T08:41:08.080Z,0.50
2023-02-28T08:43:35.444Z,0.50
2023-02-28T08:46:02.296Z,0.50
2023-02-28T08:48:30.714Z,0.50
2023-02-28T08:51:08.990Z,0.50
2023-02-28T08:53:40.320Z,0.50
2023-02-28T08:56:09.842Z,0.60
2023-02-28T08:58:36.644Z,0.60
2023-02-28T09:01:16.254Z,0.60
2023-02-28T09:03:43.653Z,0.70
2023-02-28T09:06:12.341Z,0.70
2023-02-28T09:08:39.264Z,0.70
2023-02-28T09:11:06.291Z,0.70
2023-02-28T09:13:33.912Z,0.80
2023-02-28T09:16:02.597Z,0.90
2023-02-28T09:18:30.173Z,1.00
2023-02-28T09:20:57.370Z,1.00
2023-02-28T09:23:24.460Z,1.10
2023-02-28T09:25:55.540Z,1.10
2023-02-28T09:28:22.336Z,1.20
2023-02-28T09:30:51.396Z,1.20
2023-02-28T09:33:21.548Z,1.10
2023-02-28T09:35:51.346Z,1.10
2023-02-28T09:38:18.765Z,1.20
2023-02-28T09:40:54.547Z,1.30
2023-02-28T09:43:26.193Z,1.20
2023-02-28T09:46:12.498Z,1.30
2023-02-28T09:48:44.747Z,1.40
2023-02-28T09:51:27.949Z,1.50
2023-02-28T09:54:01.358Z,1.60
2023-02-28T09:56:39.739Z,1.70
2023-02-28T09:59:39.514Z,1.70
2023-02-28T10:02:53.793Z,1.70
2023-02-28T10:05:29.554Z,1.70
2023-02-28T10:08:10.233Z,1.90
2023-02-28T10:10:47.664Z,2.00
2023-02-28T10:13:35.785Z,2.20
2023-02-28T10:16:14.968Z,2.40
2023-02-28T10:18:53.576Z,2.70
2023-02-28T10:21:30.966Z,2.70
2023-02-28T10:24:18.721Z,2.80
2023-02-28T10:26:48.187Z,2.70
2023-02-28T10:29:14.993Z,2.60
2023-02-28T10:31:41.748Z,2.50
2023-02-28T10:34:12.611Z,2.60
2023-02-28T10:36:39.963Z,2.70
2023-02-28T10:39:44.908Z,2.80
2023-02-28T10:42:27.320Z,2.80
2023-02-28T10:45:17.401Z,2.70
2023-02-28T10:48:00.133Z,2.70
2023-02-28T10:50:46.210Z,2.80
2023-02-28T10:53:27.828Z,2.90
2023-02-28T10:56:03.296Z,2.90
2023-02-28T10:58:50.665Z,3.00
2023-02-28T11:01:42.346Z,3.00
2023-02-28T11:04:24.022Z,3.00
2023-02-28T11:07:02.699Z,3.20
2023-02-28T11:09:37.291Z,3.30
2023-02-28T11:12:07.846Z,3.20
2023-02-28T11:14:48.424Z,3.30
2023-02-28T11:17:21.017Z,3.10
2023-02-28T11:19:50.840Z,2.90
2023-02-28T11:22:21.542Z,3.00
2023-02-28T11:24:53.057Z,3.00
2023-02-28T11:27:32.714Z,3.10
2023-02-28T11:30:00.099Z,3.30
2023-02-28T11:32:29.788Z,3.40
2023-02-28T11:35:23.308Z,3.50
2023-02-28T11:37:49.826Z,3.50
2023-02-28T11:40:19.473Z,3.50
2023-02-28T11:43:23.738Z,3.40
2023-02-28T11:46:23.218Z,3.00
2023-02-28T11:49:01.696Z,3.00
2023-02-28T11:51:57.417Z,2.80
2023-02-28T11:54:33.011Z,2.70
2023-02-28T11:57:35.266Z,2.80
2023-02-28T12:00:06.294Z,2.70
2023-02-28T12:02:51.693Z,2.70
2023-02-28T12:05:30.407Z,2.90
2023-02-28T12:08:41.196Z,3.00
2023-02-28T12:11:33.600Z,3.10
2023-02-28T12:14:24.802Z,3.10
2023-02-28T12:17:20.096Z,3.20
2023-02-28T12:20:06.370Z,3.20
2023-02-28T12:22:56.078Z,3.20
2023-02-28T12:25:51.466Z,3.30
2023-02-28T12:28:24.790Z,3.30
2023-02-28T12:31:07.108Z,3.30
2023-02-28T12:33:37.402Z,3.20
2023-02-28T12:36:13.086Z,3.10
2023-02-28T12:38:51.485Z,3.00
2023-02-28T12:41:23.657Z,3.00
2023-02-28T12:44:01.133Z,3.00
2023-02-28T12:46:35.450Z,3.00
2023-02-28T12:49:09.114Z,2.90
2023-02-28T12:51:36.548Z,2.80
2023-02-28T12:54:21.030Z,2.70
2023-02-28T12:57:15.369Z,2.80
2023-02-28T12:59:56.838Z,2.90
2023-02-28T13:02:43.788Z,2.90
2023-02-28T13:05:23.738Z,2.90
2023-02-28T13:08:15.575Z,2.90
2023-02-28T13:10:48.798Z,2.80
2023-02-28T13:13:22.791Z,2.80
2023-02-28T13:15:58.455Z,2.80
2023-02-28T13:18:40.452Z,2.80
2023-02-28T13:21:22.976Z,2.70
2023-02-28T13:23:56.631Z,2.70
2023-02-28T13:26:32.114Z,2.70
2023-02-28T13:29:01.600Z,2.60
2023-02-28T13:31:28.972Z,2.60
2023-02-28T13:33:57.660Z,2.60
2023-02-28T13:36:33.008Z,2.70
2023-02-28T13:39:24.432Z,2.70
2023-02-28T13:41:51.018Z,2.80
2023-02-28T13:44:27.462Z,2.80
2023-02-28T13:46:56.831Z,2.70
2023-02-28T13:49:23.671Z,2.60
2023-02-28T13:51:53.412Z,2.50
2023-02-28T13:54:36.703Z,2.40
2023-02-28T13:57:40.761Z,2.40
2023-02-28T14:00:17.868Z,2.40
2023-02-28T14:03:02.583Z,2.40
2023-02-28T14:05:31.504Z,2.40
2023-02-28T14:07:59.988Z,2.30
2023-02-28T14:10:31.624Z,2.30
2023-02-28T14:13:01.853Z,2.30
2023-02-28T14:15:34.926Z,2.30
2023-02-28T14:18:06.496Z,2.20
2023-02-28T14:20:34.872Z,2.10
2023-02-28T14:23:10.416Z,2.10
2023-02-28T14:26:09.233Z,2.10
2023-02-28T14:28:57.518Z,2.20
2023-02-28T14:31:36.501Z,2.20
2023-02-28T14:34:32.959Z,2.20
2023-02-28T14:37:02.403Z,2.10
2023-02-28T14:39:31.773Z,2.10
2023-02-28T14:42:05.834Z,2.10
2023-02-28T14:44:32.980Z,2.10
2023-02-28T14:47:07.121Z,2.00
2023-02-28T14:49:38.522Z,2.00
2023-02-28T14:52:13.128Z,2.00
2023-02-28T14:54:40.870Z,1.80
2023-02-28T14:57:07.609Z,1.80
2023-02-28T14:59:36.878Z,1.70
2023-02-28T15:02:24.922Z,1.70
2023-02-28T15:05:10.548Z,1.70
2023-02-28T15:07:37.370Z,1.70
2023-02-28T15:10:25.458Z,1.70
2023-02-28T15:12:59.305Z,1.70
2023-02-28T15:16:01.186Z,1.80
2023-02-28T15:18:57.420Z,1.80
2023-02-28T15:21:47.191Z,1.80
2023-02-28T15:24:37.894Z,1.70
2023-02-28T15:27:08.935Z,1.70
2023-02-28T15:29:42.958Z,1.80
2023-02-28T15:32:33.110Z,1.90
2023-02-28T15:35:38.094Z,1.80
2023-02-28T15:38:22.199Z,1.70
2023-02-28T15:40:56.375Z,1.70
2023-02-28T15:43:37.573Z,1.60
2023-02-28T15:46:05.329Z,1.60
2023-02-28T15:48:36.881Z,1.60
2023-02-28T15:51:07.406Z,1.60
2023-02-28T15:53:57.708Z,1.60
2023-02-28T15:56:30.185Z,1.50
2023-02-28T15:58:58.529Z,1.50
2023-02-28T16:01:35.403Z,1.50
2023-02-28T16:04:05.440Z,1.50
2023-02-28T16:06:42.942Z,1.60
2023-02-28T16:09:12.412Z,1.60
2023-02-28T16:11:47.888Z,1.50
2023-02-28T16:14:21.174Z,1.50
2023-02-28T16:16:51.362Z,1.40
2023-02-28T16:19:18.587Z,1.40
2023-02-28T16:21:45.708Z,1.40
2023-02-28T16:24:12.712Z,1.50
2023-02-28T16:26:41.817Z,1.50
2023-02-28T16:29:10.485Z,1.60
2023-02-28T16:31:39.055Z,1.50
2023-02-28T16:34:06.351Z,1.50
2023-02-28T16:36:33.076Z,1.40
2023-02-28T16:38:59.673Z,1.40
2023-02-28T16:41:28.618Z,1.40
2023-02-28T16:43:59.716Z,1.40
2023-02-28T16:46:32.527Z,1.40
2023-02-28T16:48:59.099Z,1.50
2023-02-28T16:51:25.700Z,1.50
2023-02-28T16:53:52.635Z,1.60
2023-02-28T16:56:25.054Z,1.60
2023-02-28T16:58:52.714Z,1.60
2023-02-28T17:01:22.723Z,1.60
2023-02-28T17:03:50.350Z,1.50
2023-02-28T17:06:31.505Z,1.60
2023-02-28T17:09:00.078Z,1.50
2023-02-28T17:11:27.798Z,1.50
2023-02-28T17:13:54.851Z,1.50
2023-02-28T17:16:31.439Z,1.40
2023-02-28T17:19:01.155Z,1.40
2023-02-28T17:21:28.493Z,1.30
2023-02-28T17:23:55.162Z,1.30
2023-02-28T17:26:25.170Z,1.20
2023-02-28T17:28:52.742Z,1.30
2023-02-28T17:31:19.527Z,1.30
2023-02-28T17:33:46.045Z,1.40
2023-02-28T17:36:16.152Z,1.50
2023-02-28T17:38:43.265Z,1.50
2023-02-28T17:41:12.156Z,1.50
2023-02-28T17:43:39.093Z,1.50
2023-02-28T17:46:06.766Z,1.50
2023-02-28T17:48:34.281Z,1.40
2023-02-28T17:51:00.866Z,1.40
2023-02-28T17:53:28.017Z,1.50
2023-02-28T17:55:54.577Z,1.50
2023-02-28T17:58:21.349Z,1.50
2023-02-28T18:00:48.635Z,1.60
2023-02-28T18:03:15.277Z,1.60
2023-02-28T18:05:41.919Z,1.60
2023-02-28T18:08:11.404Z,1.60
2023-02-28T18:10:37.924Z,1.50
2023-02-28T18:13:04.583Z,1.30
2023-02-28T18:15:31.193Z,1.30
2023-02-28T18:17:57.832Z,1.30
2023-02-28T18:20:24.458Z,1.20
2023-02-28T18:22:51.084Z,1.20
2023-02-28T18:25:17.933Z,1.20
2023-02-28T18:27:58.138Z,1.20
2023-02-28T18:30:33.181Z,1.10
2023-02-28T18:33:00.994Z,1.10
2023-02-28T18:35:37.423Z,1.20
2023-02-28T18:38:07.157Z,1.10
2023-02-28T18:40:34.198Z,1.20
2023-02-28T18:43:01.684Z,1.20
2023-02-28T18:45:28.342Z,1.30
2023-02-28T18:47:54.978Z,1.30
2023-02-28T18:50:21.535Z,1.40
2023-02-28T18:52:48.207Z,1.30
2023-02-28T18:55:18.694Z,1.30
2023-02-28T18:57:48.537Z,1.30
2023-02-28T19:00:18.048Z,1.30
2023-02-28T19:02:44.569Z,1.30
2023-02-28T19:05:12.117Z,1.30
2023-02-28T19:07:39.037Z,1.30
2023-02-28T19:10:06.111Z,1.40
2023-02-28T19:12:37.259Z,1.40
2023-02-28T19:15:05.756Z,1.40
2023-02-28T19:17:33.594Z,1.40
2023-02-28T19:20:00.273Z,1.40
2023-02-28T19:22:26.875Z,1.40
2023-02-28T19:24:53.446Z,1.40
2023-02-28T19:27:20.059Z,1.40
2023-02-28T19:29:51.212Z,1.40
2023-02-28T19:32:19.733Z,1.40
2023-02-28T19:34:47.336Z,1.30
2023-02-28T19:37:13.984Z,1.30
2023-02-28T19:39:44.091Z,1.30
2023-02-28T19:42:16.287Z,1.40
2023-02-28T19:44:42.931Z,1.40
2023-02-28T19:47:09.754Z,1.40
2023-02-28T19:49:36.268Z,1.40
2023-02-28T19:52:03.062Z,1.40
2023-02-28T19:54:30.052Z,1.40
2023-02-28T19:56:58.287Z,1.40
2023-02-28T19:59:35.759Z,1.40
2023-02-28T20:02:05.424Z,1.30
2023-02-28T20:04:32.030Z,1.30
2023-02-28T20:06:58.620Z,1.30
2023-02-28T20:09:25.242Z,1.30
2023-02-28T20:11:52.059Z,1.20
2023-02-28T20:14:18.732Z,1.30
2023-02-28T20:16:45.951Z,1.30
2023-02-28T20:19:13.095Z,1.30
2023-02-28T20:21:41.185Z,1.40
2023-02-28T20:24:08.012Z,1.30
2023-02-28T20:26:34.858Z,1.30
2023-02-28T20:29:01.390Z,1.30
2023-02-28T20:31:28.629Z,1.30
2023-02-28T20:33:55.278Z,1.30
2023-02-28T20:36:22.627Z,1.30
2023-02-28T20:38:50.807Z,1.40
2023-02-28T20:41:17.557Z,1.40
2023-02-28T20:43:44.740Z,1.40
2023-02-28T20:46:11.583Z,1.40
2023-02-28T20:48:38.771Z,1.40
2023-02-28T20:51:06.106Z,1.40
2023-02-28T20:53:34.560Z,1.30
2023-02-28T20:56:02.143Z,1.30
2023-02-28T20:58:31.812Z,1.30
2023-02-28T21:01:15.900Z,1.30
2023-02-28T21:03:43.728Z,1.30
2023-02-28T21:06:10.656Z,1.30
2023-02-28T21:08:38.603Z,1.30
2023-02-28T21:11:14.026Z,1.30
2023-02-28T21:13:42.706Z,1.30
2023-02-28T21:16:12.007Z,1.30
2023-02-28T21:18:39.063Z,1.30
2023-02-28T21:21:07.888Z,1.30
2023-02-28T21:23:34.598Z,1.20
2023-02-28T21:26:05.231Z,1.30
2023-02-28T21:28:32.741Z,1.30
2023-02-28T21:31:07.061Z,1.30
2023-02-28T21:33:34.615Z,1.30
2023-02-28T21:36:03.406Z,1.30
2023-02-28T21:38:30.301Z,1.30
2023-02-28T21:41:02.510Z,1.20
2023-02-28T21:43:29.052Z,1.20
2023-02-28T21:45:55.596Z,1.20
2023-02-28T21:48:22.133Z,1.20
2023-02-28T21:50:56.313Z,1.20
2023-02-28T21:53:22.872Z,1.20
2023-02-28T21:55:49.402Z,1.10
2023-02-28T21:58:16.057Z,1.10
2023-02-28T22:00:42.598Z,1.10
2023-02-28T22:03:09.156Z,1.10
2023-02-28T22:05:35.721Z,1.10
2023-02-28T22:08:02.324Z,1.20
2023-02-28T22:10:28.855Z,1.20
2023-02-28T22:12:55.485Z,1.20
2023-02-28T22:15:22.032Z,1.20
2023-02-28T22:17:48.532Z,1.20
2023-02-28T22:20:15.177Z,1.20
2023-02-28T22:22:41.778Z,1.20
2023-02-28T22:25:09.881Z,1.20
2023-02-28T22:27:36.491Z,1.20
2023-02-28T22:30:03.082Z,1.20
2023-02-28T22:32:29.698Z,1.20
2023-02-28T22:34:56.345Z,1.30
2023-02-28T22:37:22.897Z,1.20
2023-02-28T22:39:49.416Z,1.30
2023-02-28T22:42:15.952Z,1.30
2023-02-28T22:44:42.558Z,1.30
2023-02-28T22:47:09.152Z,1.30
2023-02-28T22:49:35.723Z,1.30
2023-02-28T22:52:02.400Z,1.20
2023-02-28T22:54:28.937Z,1.20
2023-02-28T22:56:55.544Z,1.20
2023-02-28T22:59:22.058Z,1.20
2023-02-28T23:01:48.630Z,1.20
2023-02-28T23:04:15.268Z,1.20
2023-02-28T23:06:43.259Z,1.20
2023-02-28T23:09:21.347Z,1.30
2023-02-28T23:11:50.590Z,1.30
2023-02-28T23:14:18.794Z,1.30
2023-02-28T23:16:50.797Z,1.30
2023-02-28T23:19:20.742Z,1.30
2023-02-28T23:21:47.927Z,1.40
2023-02-28T23:24:16.843Z,1.40
2023-02-28T23:26:45.948Z,1.40
2023-02-28T23:29:14.032Z,1.40
2023-02-28T23:31:41.244Z,1.50
2023-02-28T23:34:09.117Z,1.50
2023-02-28T23:36:35.625Z,1.50
2023-02-28T23:39:02.229Z,1.40
2023-02-28T23:41:28.752Z,1.40
2023-02-28T23:43:56.062Z,1.50
2023-02-28T23:46:22.883Z,1.50
2023-02-28T23:48:49.496Z,1.50
2023-02-28T23:51:19.034Z,1.50
2023-02-28T23:53:49.161Z,1.50
2023-02-28T23:56:25.220Z,1.50
2023-02-28T23:58:52.009Z,1.50
